Terminal Aerodrome Forecast
Issued by NWS Burlington, VT

Home | Current Version | Previous Version | Text Only | Print | Product List | Glossary On
Versions: 1 2 3 4 5 6 7 8 9 10 11
001
FTUS41 KBTV 231731
TAFBTV
TAF
KBTV 231731Z 2318/2418 30007KT P6SM BKN130
     FM240300 05004KT P6SM OVC070
     FM240900 14004KT P6SM VCSH OVC060
     FM241400 15006KT 6SM SHRA BR OVC030=

USA.gov is the U.S. government's official web portal to all federal, state and local government web resources and services.